Time;durP1;ratioP1;P1;durP2;ratioP2;P2;SDS_P1;SDS_P2;PMS_P1;PMS_P2;Temp;Humidity;BMP_temperature;BMP_pressure;BME280_temperature;BME280_humidity;BME280_pressure;Samples;Min_cycle;Max_cycle;Signal;HPM_P1;HPM_P2
2024/03/05 00:01:56;;;;;;;40.93;11.17;;;;;;;10.05;100.00;95793.75;5038104;28;20274;-71
2024/03/05 00:04:22;;;;;;;33.13;10.27;;;;;;;9.68;100.00;95794.88;5037506;28;20225;-71
2024/03/05 00:06:49;;;;;;;31.00;10.60;;;;;;;9.80;100.00;95795.03;5038641;28;20579;-71
2024/03/05 00:09:15;;;;;;;32.73;11.00;;;;;;;9.80;100.00;95797.66;5037856;28;20225;-71
2024/03/05 00:11:42;;;;;;;26.77;9.77;;;;;;;9.80;100.00;95794.19;5038276;28;20205;-71
2024/03/05 00:14:08;;;;;;;26.00;9.07;;;;;;;9.78;100.00;95801.47;5037202;28;20229;-71
2024/03/05 00:16:35;;;;;;;29.73;10.10;;;;;;;9.70;100.00;95794.50;5037890;28;20209;-71
2024/03/05 00:19:03;;;;;;;31.23;10.17;;;;;;;9.87;100.00;95797.75;5037774;28;20206;-69
2024/03/05 00:21:28;;;;;;;37.77;11.63;;;;;;;9.73;100.00;95799.38;5037961;28;20201;-69
2024/03/05 00:23:55;;;;;;;33.77;9.87;;;;;;;9.80;100.00;95809.97;5036283;28;20788;-69
2024/03/05 00:26:25;;;;;;;28.47;10.27;;;;;;;9.78;100.00;95804.91;5037559;28;20208;-69
2024/03/05 00:28:54;;;;;;;38.07;11.47;;;;;;;9.80;100.00;95796.81;5037115;28;20391;-69
2024/03/05 00:31:21;;;;;;;29.40;8.67;;;;;;;9.78;100.00;95799.66;5037231;28;20486;-68
2024/03/05 00:33:48;;;;;;;33.67;10.33;;;;;;;9.61;100.00;95799.19;5036439;28;20231;-69
2024/03/05 00:36:15;;;;;;;32.43;9.93;;;;;;;9.71;100.00;95804.00;5037909;28;20256;-68
2024/03/05 00:38:42;;;;;;;32.93;9.40;;;;;;;9.35;100.00;95799.63;5037760;28;20212;-69
2024/03/05 00:41:09;;;;;;;31.17;9.63;;;;;;;9.41;100.00;95798.13;5037089;28;20368;-69
2024/03/05 00:43:35;;;;;;;34.27;9.73;;;;;;;9.54;100.00;95798.31;5036615;28;20236;-69
2024/03/05 00:46:01;;;;;;;27.33;9.37;;;;;;;9.39;100.00;95800.91;5037483;28;20205;-69
2024/03/05 00:48:27;;;;;;;32.80;8.50;;;;;;;9.23;100.00;95803.72;5037380;28;20479;-69
2024/03/05 00:50:54;;;;;;;22.80;8.63;;;;;;;9.38;100.00;95803.72;5036753;28;20221;-69
2024/03/05 00:53:22;;;;;;;27.27;9.10;;;;;;;9.39;100.00;95800.09;5037478;28;20783;-69
2024/03/05 00:55:49;;;;;;;29.57;9.77;;;;;;;9.34;100.00;95805.09;5035643;28;20288;-68
2024/03/05 00:58:15;;;;;;;32.93;9.23;;;;;;;9.49;100.00;95800.66;5037126;28;20213;-69
2024/03/05 01:00:43;;;;;;;31.60;9.67;;;;;;;9.48;100.00;95804.28;5037324;28;20393;-69
2024/03/05 01:03:10;;;;;;;31.03;8.77;;;;;;;9.55;100.00;95805.22;5037006;28;20239;-69
2024/03/05 01:05:36;;;;;;;29.77;9.20;;;;;;;9.42;100.00;95805.00;5036398;28;20419;-71
2024/03/05 01:08:03;;;;;;;30.90;9.83;;;;;;;9.31;100.00;95802.81;5036880;28;20205;-71
2024/03/05 01:10:31;;;;;;;30.40;10.27;;;;;;;9.59;100.00;95795.94;5036826;28;20233;-71
2024/03/05 01:12:58;;;;;;;32.10;10.73;;;;;;;9.49;100.00;95798.03;5036530;28;20229;-71
2024/03/05 01:15:24;;;;;;;32.27;9.30;;;;;;;9.49;100.00;95801.47;5036590;28;20664;-71
2024/03/05 01:17:52;;;;;;;27.77;9.33;;;;;;;9.51;100.00;95799.47;5037152;28;20314;-70
2024/03/05 01:20:20;;;;;;;24.50;8.33;;;;;;;9.33;100.00;95803.44;5036429;28;20622;-71
2024/03/05 01:22:46;;;;;;;28.80;8.90;;;;;;;9.34;100.00;95797.19;5036945;28;20209;-71
2024/03/05 01:25:13;;;;;;;27.60;9.60;;;;;;;9.51;100.00;95798.66;5036142;28;20212;-71
2024/03/05 01:27:41;;;;;;;26.40;8.33;;;;;;;9.62;100.00;95796.38;5036416;28;20448;-71
2024/03/05 01:30:10;;;;;;;30.23;8.57;;;;;;;9.65;100.00;95787.31;5036058;28;20646;-71
2024/03/05 01:32:37;;;;;;;23.43;8.30;;;;;;;9.49;100.00;95790.13;5036922;28;20275;-71
2024/03/05 01:35:08;;;;;;;30.07;9.07;;;;;;;9.46;100.00;95793.13;5035779;28;20208;-71
2024/03/05 01:37:35;;;;;;;25.40;8.27;;;;;;;9.39;100.00;95802.72;5036467;28;20263;-71
2024/03/05 01:40:03;;;;;;;33.20;9.77;;;;;;;9.19;100.00;95799.81;5035905;28;20201;-71
2024/03/05 01:42:30;;;;;;;26.73;8.67;;;;;;;9.25;100.00;95798.28;5036722;28;20783;-71
2024/03/05 01:44:58;;;;;;;26.83;9.23;;;;;;;9.53;100.00;95797.47;5035476;28;20208;-71
2024/03/05 01:47:25;;;;;;;25.00;8.13;;;;;;;9.23;100.00;95800.28;5035881;28;20209;-71
2024/03/05 01:49:51;;;;;;;25.87;9.27;;;;;;;9.36;100.00;95811.00;5036078;28;20229;-70
2024/03/05 01:52:18;;;;;;;30.30;8.87;;;;;;;9.45;100.00;95802.81;5035995;28;20202;-69
2024/03/05 01:54:45;;;;;;;27.83;9.07;;;;;;;9.42;100.00;95803.19;5035002;28;20829;-69
2024/03/05 01:57:12;;;;;;;30.50;9.07;;;;;;;9.43;100.00;95801.38;5035590;28;20679;-69
2024/03/05 01:59:39;;;;;;;34.67;10.63;;;;;;;9.59;100.00;95799.38;5036686;28;20209;-69
2024/03/05 02:02:07;;;;;;;31.13;8.63;;;;;;;9.62;100.00;95806.91;5036064;28;20640;-69
2024/03/05 02:04:37;;;;;;;33.77;9.63;;;;;;;9.70;100.00;95805.00;5035407;28;20228;-69
2024/03/05 02:07:06;;;;;;;31.80;10.00;;;;;;;9.42;100.00;95807.63;5035106;28;20205;-71
2024/03/05 02:09:33;;;;;;;36.73;10.07;;;;;;;9.31;100.00;95810.72;5035514;28;20270;-71
2024/03/05 02:12:01;;;;;;;26.23;8.50;;;;;;;9.49;100.00;95817.25;5035489;28;20212;-71
2024/03/05 02:14:29;;;;;;;38.50;9.40;;;;;;;9.48;100.00;95810.38;5036524;28;20229;-71
2024/03/05 02:16:57;;;;;;;29.90;9.27;;;;;;;9.70;100.00;95810.28;5035746;28;20626;-71
2024/03/05 02:19:26;;;;;;;30.43;9.60;;;;;;;9.74;100.00;95808.91;5035137;28;20208;-71
2024/03/05 02:21:59;;;;;;;28.80;9.60;;;;;;;9.91;100.00;95812.16;5035136;28;20201;-71
2024/03/05 02:24:26;;;;;;;31.27;9.43;;;;;;;9.55;100.00;95815.72;5035777;28;20217;-71
2024/03/05 02:26:53;;;;;;;31.17;8.57;;;;;;;9.67;100.00;95809.00;5035489;28;20375;-71
2024/03/05 02:29:20;;;;;;;31.33;9.83;;;;;;;9.68;100.00;95808.00;5035714;28;20424;-71
2024/03/05 02:31:47;;;;;;;31.83;9.60;;;;;;;9.67;100.00;95803.75;5035796;28;20236;-71
2024/03/05 02:34:14;;;;;;;26.03;8.83;;;;;;;9.69;100.00;95808.63;5035135;28;20221;-71
2024/03/05 02:36:41;;;;;;;29.17;9.00;;;;;;;9.67;100.00;95801.13;5035540;28;20209;-70
2024/03/05 02:39:09;;;;;;;26.17;8.67;;;;;;;9.74;100.00;95793.13;5034828;28;20208;-71
2024/03/05 02:41:36;;;;;;;24.77;8.53;;;;;;;9.37;100.00;95786.34;5035098;28;20200;-71
2024/03/05 02:44:03;;;;;;;28.23;8.20;;;;;;;9.47;100.00;95794.75;5034755;28;20399;-71
2024/03/05 02:46:30;;;;;;;28.10;8.37;;;;;;;9.39;100.00;95800.91;5035020;28;20211;-71
2024/03/05 02:48:57;;;;;;;30.50;9.67;;;;;;;9.30;100.00;95806.44;5035152;28;20206;-71
2024/03/05 02:51:24;;;;;;;27.73;10.10;;;;;;;9.39;100.00;95805.34;5035253;28;20235;-71
2024/03/05 02:53:50;;;;;;;33.90;9.87;;;;;;;9.50;100.00;95803.09;5033802;28;20221;-71
2024/03/05 02:56:18;;;;;;;28.10;8.93;;;;;;;9.71;100.00;95804.00;5035227;28;20221;-71
2024/03/05 02:58:45;;;;;;;29.03;9.10;;;;;;;9.55;100.00;95815.72;5036646;28;20215;-71
2024/03/05 03:01:12;;;;;;;28.77;8.80;;;;;;;9.45;100.00;95810.72;5039285;28;20421;-71
2024/03/05 03:03:39;;;;;;;33.10;9.27;;;;;;;9.50;100.00;95807.56;5038415;28;20233;-71
2024/03/05 03:06:05;;;;;;;24.87;8.37;;;;;;;9.59;100.00;95811.72;5039219;28;20286;-71
2024/03/05 03:08:32;;;;;;;31.43;8.43;;;;;;;9.53;100.00;95820.34;5039164;28;20205;-71
2024/03/05 03:10:59;;;;;;;30.00;8.53;;;;;;;9.54;100.00;95814.88;5038568;28;20333;-71
2024/03/05 03:13:27;;;;;;;29.37;10.23;;;;;;;9.70;100.00;95825.25;5038809;28;20224;-71
2024/03/05 03:15:53;;;;;;;27.37;9.63;;;;;;;9.57;100.00;95825.06;5038964;28;20213;-71
2024/03/05 03:18:21;;;;;;;33.37;9.87;;;;;;;9.56;100.00;95825.22;5039343;28;20204;-71
2024/03/05 03:20:47;;;;;;;26.67;9.27;;;;;;;9.48;100.00;95826.16;5039299;28;20197;-71
2024/03/05 03:23:14;;;;;;;29.37;10.10;;;;;;;9.63;100.00;95821.69;5039055;28;20726;-71
2024/03/05 03:25:40;;;;;;;27.20;8.63;;;;;;;9.59;100.00;95827.50;5036262;28;20655;-71
2024/03/05 03:28:07;;;;;;;27.23;9.77;;;;;;;9.59;100.00;95827.50;5038709;28;20210;-71
2024/03/05 03:30:35;;;;;;;29.20;9.70;;;;;;;9.73;100.00;95836.22;5039287;28;20485;-71
2024/03/05 03:33:04;;;;;;;38.27;11.17;;;;;;;9.65;100.00;95838.13;5038378;28;20726;-71
2024/03/05 03:35:30;;;;;;;29.70;9.90;;;;;;;9.70;100.00;95835.78;5037991;28;20680;-71
2024/03/05 03:37:57;;;;;;;28.30;9.67;;;;;;;9.46;100.00;95832.59;5038993;28;20223;-71
2024/03/05 03:40:23;;;;;;;37.50;11.23;;;;;;;9.46;100.00;95840.47;5039627;28;20209;-69
2024/03/05 03:42:51;;;;;;;29.40;9.53;;;;;;;9.62;100.00;95841.09;5039468;28;20229;-69
2024/03/05 03:45:18;;;;;;;26.60;9.10;;;;;;;9.61;100.00;95833.41;5037507;28;20205;-69
2024/03/05 03:47:46;;;;;;;29.17;9.77;;;;;;;9.68;100.00;95840.38;5038667;28;20812;-68
2024/03/05 03:50:13;;;;;;;27.70;9.23;;;;;;;9.45;100.00;95844.91;5038044;28;20965;-69
2024/03/05 03:52:42;;;;;;;32.43;9.10;;;;;;;9.63;100.00;95848.00;5038929;28;20681;-69
2024/03/05 03:55:09;;;;;;;30.90;9.90;;;;;;;9.44;100.00;95847.72;5036736;28;20197;-69
2024/03/05 03:57:35;;;;;;;41.07;11.73;;;;;;;9.49;100.00;95848.00;5038566;28;20236;-69
2024/03/05 04:00:07;;;;;;;45.90;11.67;;;;;;;9.57;100.00;95863.69;5038199;28;20452;-69
2024/03/05 04:02:34;;;;;;;37.73;11.00;;;;;;;9.59;100.00;95859.88;5038203;28;20292;-69
2024/03/05 04:05:04;;;;;;;29.10;10.87;;;;;;;9.77;100.00;95861.16;5036960;28;20271;-69
2024/03/05 04:07:31;;;;;;;31.57;9.50;;;;;;;9.63;100.00;95862.97;5038430;28;20490;-70
2024/03/05 04:09:58;;;;;;;28.30;10.00;;;;;;;9.52;100.00;95866.03;5037195;28;20288;-71
2024/03/05 04:12:25;;;;;;;34.27;10.13;;;;;;;9.27;100.00;95869.91;5038500;28;20233;-71
2024/03/05 04:14:51;;;;;;;32.57;10.47;;;;;;;9.29;100.00;95871.34;5036968;28;20236;-71
2024/03/05 04:17:19;;;;;;;32.83;11.17;;;;;;;9.42;100.00;95868.09;5037726;28;20479;-71
2024/03/05 04:19:45;;;;;;;30.17;10.20;;;;;;;9.27;100.00;95869.91;5038102;28;20694;-71
2024/03/05 04:22:14;;;;;;;35.27;10.17;;;;;;;9.62;100.00;95858.72;5037871;28;20201;-70
2024/03/05 04:24:49;;;;;;;36.67;10.80;;;;;;;9.53;100.00;95865.03;5037461;28;20811;-71
2024/03/05 04:27:18;;;;;;;32.73;10.07;;;;;;;9.53;100.00;95871.09;5037367;28;20204;-71
2024/03/05 04:29:47;;;;;;;27.67;10.17;;;;;;;9.49;100.00;95874.28;5037980;28;20354;-71
2024/03/05 04:32:14;;;;;;;31.80;10.43;;;;;;;9.59;100.00;95867.78;5038040;28;20573;-71
2024/03/05 04:34:43;;;;;;;30.37;10.17;;;;;;;9.60;100.00;95863.31;5037163;28;20344;-71
2024/03/05 04:37:10;;;;;;;34.00;9.93;;;;;;;9.63;100.00;95865.63;5036960;28;20208;-71
2024/03/05 04:39:38;;;;;;;32.40;11.00;;;;;;;9.71;100.00;95872.41;5038461;28;20656;-71
2024/03/05 04:42:06;;;;;;;33.53;11.10;;;;;;;9.59;100.00;95869.59;5037954;28;20208;-70
2024/03/05 04:44:34;;;;;;;36.50;10.67;;;;;;;9.53;100.00;95870.31;5036618;28;20225;-71
2024/03/05 04:47:00;;;;;;;32.50;11.43;;;;;;;9.55;100.00;95869.13;5037226;28;20205;-71
2024/03/05 04:49:27;;;;;;;41.37;11.97;;;;;;;9.54;100.00;95869.31;5037692;28;20213;-71
2024/03/05 04:51:54;;;;;;;38.60;13.10;;;;;;;9.55;100.00;95869.13;5037232;28;20225;-71
2024/03/05 04:54:20;;;;;;;48.63;12.67;;;;;;;9.45;100.00;95873.03;5036339;28;20328;-71
2024/03/05 04:56:48;;;;;;;44.07;12.53;;;;;;;9.58;100.00;95873.22;5036931;28;20201;-71
2024/03/05 04:59:15;;;;;;;40.33;11.87;;;;;;;9.47;100.00;95881.53;5037296;28;20224;-71
2024/03/05 05:01:41;;;;;;;41.67;11.33;;;;;;;9.48;100.00;95875.28;5037605;28;20197;-71
2024/03/05 05:04:08;;;;;;;33.33;11.07;;;;;;;9.47;100.00;95876.28;5036077;28;20236;-71
2024/03/05 05:06:34;;;;;;;37.53;12.23;;;;;;;9.50;100.00;95882.00;5037479;28;20208;-71
2024/03/05 05:09:01;;;;;;;36.87;10.67;;;;;;;9.51;100.00;95881.00;5036729;28;20231;-71
2024/03/05 05:11:27;;;;;;;35.57;10.93;;;;;;;9.51;100.00;95880.19;5036854;28;20221;-71
2024/03/05 05:13:55;;;;;;;36.33;11.20;;;;;;;9.65;100.00;95871.50;5036263;28;20619;-71
2024/03/05 05:16:21;;;;;;;29.93;10.10;;;;;;;9.44;100.00;95874.00;5036706;28;20259;-71
2024/03/05 05:18:48;;;;;;;31.97;10.00;;;;;;;9.41;100.00;95877.81;5036234;28;20201;-71
2024/03/05 05:21:15;;;;;;;37.93;11.53;;;;;;;9.36;100.00;95876.72;5036332;28;20201;-71
2024/03/05 05:23:42;;;;;;;33.33;11.33;;;;;;;9.42;100.00;95874.19;5035437;28;20217;-71
2024/03/05 05:26:09;;;;;;;38.23;11.03;;;;;;;9.45;100.00;95876.47;5036477;28;20204;-69
2024/03/05 05:28:36;;;;;;;31.73;9.87;;;;;;;9.46;100.00;95877.28;5036638;28;20197;-69
2024/03/05 05:31:05;;;;;;;31.40;10.20;;;;;;;9.65;100.00;95868.88;5036197;28;20221;-68
2024/03/05 05:33:33;;;;;;;31.00;9.67;;;;;;;9.45;100.00;95873.81;5035316;28;20588;-68
2024/03/05 05:35:59;;;;;;;30.80;8.83;;;;;;;9.41;100.00;95877.00;5037007;28;20224;-69
2024/03/05 05:38:26;;;;;;;28.93;9.77;;;;;;;9.43;100.00;95875.00;5036193;28;20205;-69
2024/03/05 05:40:52;;;;;;;29.00;9.77;;;;;;;9.45;100.00;95875.66;5036274;28;20204;-69
2024/03/05 05:43:19;;;;;;;31.47;11.03;;;;;;;9.41;100.00;95880.44;5036797;28;20315;-69
2024/03/05 05:45:48;;;;;;;22.53;7.67;;;;;;;9.36;100.00;95874.91;5035535;28;20213;-71
2024/03/05 05:48:24;;;;;;;31.00;10.03;;;;;;;9.52;100.00;95880.03;5035657;28;20208;-71
2024/03/05 05:50:54;;;;;;;27.80;8.67;;;;;;;9.54;100.00;95869.31;5036832;28;20224;-71
2024/03/05 05:53:20;;;;;;;30.57;8.43;;;;;;;9.31;100.00;95877.25;5036486;28;20228;-71
2024/03/05 05:55:47;;;;;;;24.60;8.37;;;;;;;9.36;100.00;95872.28;5036109;28;20204;-71
2024/03/05 05:58:13;;;;;;;28.90;8.80;;;;;;;9.27;100.00;95870.72;5035891;28;20596;-71
2024/03/05 06:00:40;;;;;;;31.80;9.30;;;;;;;9.31;100.00;95877.25;5037149;28;20298;-71
2024/03/05 06:03:08;;;;;;;31.23;9.17;;;;;;;9.38;100.00;95878.19;5036169;28;20227;-71
2024/03/05 06:05:36;;;;;;;31.60;9.77;;;;;;;9.49;100.00;95875.09;5035606;28;20283;-71
2024/03/05 06:08:04;;;;;;;43.03;12.47;;;;;;;9.37;100.00;95881.00;5035913;28;20256;-71
2024/03/05 06:10:32;;;;;;;38.10;12.37;;;;;;;9.33;100.00;95887.56;5036055;28;20331;-72
2024/03/05 06:12:59;;;;;;;43.40;13.07;;;;;;;9.33;100.00;95884.94;5035933;28;20232;-72
2024/03/05 06:15:28;;;;;;;33.33;11.73;;;;;;;9.26;100.00;95890.09;5035226;28;20209;-72
2024/03/05 06:17:55;;;;;;;30.57;10.17;;;;;;;9.32;100.00;95884.13;5035725;28;20279;-71
2024/03/05 06:20:22;;;;;;;43.97;12.20;;;;;;;9.39;100.00;95889.50;5035427;28;20282;-71
2024/03/05 06:22:50;;;;;;;40.43;12.53;;;;;;;9.62;100.00;95900.78;5036302;28;20197;-71
2024/03/05 06:25:18;;;;;;;36.67;11.30;;;;;;;9.52;100.00;95901.06;5035648;28;20202;-71
2024/03/05 06:27:45;;;;;;;35.27;12.30;;;;;;;9.27;100.00;95897.00;5036054;28;20679;-72
2024/03/05 06:30:15;;;;;;;42.20;10.53;;;;;;;9.44;100.00;95901.13;5035793;28;20446;-70
2024/03/05 06:32:46;;;;;;;41.13;10.97;;;;;;;9.44;100.00;95902.94;5036350;28;20225;-69
2024/03/05 06:35:13;;;;;;;37.63;11.13;;;;;;;9.51;100.00;95898.59;5035181;28;20201;-70
2024/03/05 06:37:39;;;;;;;40.10;11.47;;;;;;;9.41;100.00;95908.56;5036687;28;20208;-71
2024/03/05 06:40:10;;;;;;;42.43;12.03;;;;;;;9.65;100.00;95919.69;5035269;28;21295;-72
2024/03/05 06:42:38;;;;;;;39.07;11.60;;;;;;;9.21;100.00;95913.47;5035760;28;20205;-73
2024/03/05 06:45:06;;;;;;;39.83;12.10;;;;;;;9.58;100.00;95915.31;5035193;28;20189;-70
2024/03/05 06:47:38;;;;;;;40.80;10.93;;;;;;;9.26;100.00;95921.66;5035698;28;20292;-71
2024/03/05 06:50:08;;;;;;;40.83;11.30;;;;;;;9.67;100.00;95909.78;5035014;28;20286;-73
2024/03/05 06:58:05;;;;;;;39.10;12.40;;;;;;;9.43;100.00;95922.34;5035571;28;20793;-71
2024/03/05 07:00:31;;;;;;;36.63;11.53;;;;;;;9.49;100.00;95925.06;5035419;28;20201;-71
2024/03/05 07:02:58;;;;;;;38.30;10.57;;;;;;;9.51;100.00;95927.50;5035635;28;20237;-72
2024/03/05 07:05:24;;;;;;;33.80;11.07;;;;;;;9.62;100.00;95921.84;5034868;28;20201;-71
2024/03/05 07:07:51;;;;;;;39.90;11.77;;;;;;;9.67;100.00;95930.00;5035785;28;20212;-72
2024/03/05 07:10:21;;;;;;;38.17;11.67;;;;;;;9.52;100.00;95923.91;5035862;28;20569;-72
2024/03/05 07:12:50;;;;;;;35.10;11.60;;;;;;;9.57;100.00;95926.81;5036038;28;20217;-72
2024/03/05 07:15:17;;;;;;;40.13;11.67;;;;;;;9.66;100.00;95931.00;5035134;28;20201;-72
2024/03/05 07:17:44;;;;;;;36.20;11.40;;;;;;;9.70;100.00;95920.78;5036524;28;20206;-71
2024/03/05 07:20:18;;;;;;;37.10;11.93;;;;;;;9.77;100.00;95921.66;5035451;28;20201;-71
2024/03/05 07:22:46;;;;;;;39.33;11.47;;;;;;;9.74;100.00;95929.94;5034918;28;20204;-71
2024/03/05 07:25:14;;;;;;;42.53;11.23;;;;;;;9.56;100.00;95933.06;5035206;28;20663;-71
2024/03/05 07:27:41;;;;;;;40.67;11.27;;;;;;;9.62;100.00;95927.09;5035770;28;20201;-71
2024/03/05 07:30:15;;;;;;;37.37;11.47;;;;;;;9.58;100.00;95928.47;5035335;28;20202;-71
2024/03/05 07:32:42;;;;;;;34.83;11.00;;;;;;;9.50;100.00;95933.78;5034769;28;20744;-71
2024/03/05 07:35:10;;;;;;;28.93;9.83;;;;;;;9.68;100.00;95934.28;5035015;28;20984;-71
2024/03/05 07:37:37;;;;;;;36.10;11.80;;;;;;;9.48;100.00;95936.59;5035432;28;20201;-71
2024/03/05 07:40:11;;;;;;;40.63;11.37;;;;;;;9.71;100.00;95937.34;5034857;28;20271;-72
2024/03/05 07:42:41;;;;;;;31.80;10.77;;;;;;;9.91;100.00;95936.66;5034772;28;20284;-72
2024/03/05 07:45:09;;;;;;;37.83;12.33;;;;;;;9.43;100.00;95938.13;5036199;28;20453;-71
2024/03/05 07:47:35;;;;;;;31.27;11.23;;;;;;;9.66;100.00;95936.25;5037887;28;20208;-71
2024/03/05 07:50:02;;;;;;;38.37;11.23;;;;;;;9.31;100.00;95934.28;5038420;28;20208;-71
2024/03/05 07:52:28;;;;;;;31.83;11.07;;;;;;;9.48;100.00;95933.97;5038097;28;20225;-71
2024/03/05 07:54:55;;;;;;;39.97;11.63;;;;;;;9.42;100.00;95942.56;5037459;28;20205;-71
2024/03/05 07:57:21;;;;;;;39.67;12.70;;;;;;;9.66;100.00;95941.53;5038135;28;20209;-71
2024/03/05 07:59:49;;;;;;;43.00;10.97;;;;;;;9.75;100.00;95943.94;5038547;28;20212;-71
2024/03/05 08:02:17;;;;;;;35.70;11.47;;;;;;;9.74;100.00;95943.09;5037765;28;20291;-71
2024/03/05 08:04:44;;;;;;;41.77;11.47;;;;;;;9.76;100.00;95942.91;5038466;28;20229;-71
2024/03/05 08:07:11;;;;;;;38.27;11.47;;;;;;;9.65;100.00;95943.34;5038912;28;20201;-71
2024/03/05 08:09:37;;;;;;;45.63;13.33;;;;;;;9.82;100.00;95945.63;5037889;28;20197;-71
2024/03/05 08:12:04;;;;;;;39.70;12.77;;;;;;;9.94;100.00;95948.66;5038292;28;20594;-71
2024/03/05 08:14:31;;;;;;;38.77;11.80;;;;;;;9.85;100.00;95952.34;5037633;28;20236;-72
2024/03/05 08:16:58;;;;;;;37.90;11.27;;;;;;;9.84;100.00;95958.63;5037349;28;21299;-71
2024/03/05 08:19:25;;;;;;;38.10;11.87;;;;;;;10.06;100.00;95953.31;5038164;28;20480;-71
2024/03/05 08:21:52;;;;;;;34.03;12.00;;;;;;;9.88;100.00;95957.28;5038155;28;20208;-71
2024/03/05 08:24:19;;;;;;;37.10;11.97;;;;;;;9.74;100.00;95958.88;5037061;28;20228;-71
2024/03/05 08:26:45;;;;;;;40.10;13.40;;;;;;;9.60;100.00;95960.66;5037906;28;21443;-71
2024/03/05 08:29:12;;;;;;;31.73;11.07;;;;;;;9.68;100.00;95954.31;5038146;28;20212;-71
2024/03/05 08:31:38;;;;;;;33.90;10.57;;;;;;;9.97;100.00;95959.66;5037494;28;20208;-72
2024/03/05 08:34:05;;;;;;;35.27;11.43;;;;;;;9.91;100.00;95956.91;5036520;28;20715;-72
2024/03/05 08:36:36;;;;;;;39.30;11.30;;;;;;;10.05;100.00;95956.94;5038548;28;20217;-72
2024/03/05 08:39:04;;;;;;;36.80;11.30;;;;;;;9.70;100.00;95954.97;5037261;28;20300;-71
2024/03/05 08:41:31;;;;;;;32.23;11.37;;;;;;;10.03;100.00;95958.97;5037596;28;20213;-71
2024/03/05 08:43:58;;;;;;;38.27;11.73;;;;;;;9.93;100.00;95957.56;5037037;28;20295;-72
2024/03/05 08:46:24;;;;;;;40.90;12.80;;;;;;;9.90;100.00;95958.75;5037790;28;20209;-72
2024/03/05 08:48:52;;;;;;;37.83;10.67;;;;;;;10.02;100.00;95962.59;5036615;28;20625;-72
2024/03/05 08:51:18;;;;;;;35.80;10.67;;;;;;;10.21;100.00;95962.06;5037649;28;20250;-71
2024/03/05 08:53:46;;;;;;;33.87;11.03;;;;;;;10.43;100.00;95955.88;5036299;28;20387;-71
2024/03/05 08:56:13;;;;;;;37.97;11.43;;;;;;;10.26;100.00;95956.22;5035534;28;20588;-71
2024/03/05 08:58:40;;;;;;;36.23;11.70;;;;;;;9.89;100.00;95967.63;5037192;28;20743;-71
2024/03/05 09:01:10;;;;;;;30.63;10.13;;;;;;;9.87;100.00;95961.72;5036986;28;20197;-71
2024/03/05 09:03:37;;;;;;;37.37;11.80;;;;;;;10.25;100.00;95959.88;5035958;28;20717;-71
2024/03/05 09:06:06;;;;;;;37.43;11.10;;;;;;;10.40;100.00;95954.41;5037497;28;20355;-71
2024/03/05 09:08:33;;;;;;;33.87;11.20;;;;;;;10.58;100.00;95959.31;5037072;28;20244;-71
2024/03/05 09:11:05;;;;;;;36.77;11.27;;;;;;;10.98;100.00;95954.31;5036486;28;20205;-71
2024/03/05 09:13:32;;;;;;;29.60;10.40;;;;;;;10.93;100.00;95954.88;5035978;28;20696;-71
2024/03/05 09:15:59;;;;;;;31.17;10.00;;;;;;;10.60;100.00;95958.13;5036785;28;20202;-71
2024/03/05 09:18:25;;;;;;;36.17;11.23;;;;;;;10.77;100.00;95953.44;5037189;28;20475;-71
2024/03/05 09:20:52;;;;;;;38.10;10.77;;;;;;;10.78;100.00;95952.47;5037042;28;20201;-71
2024/03/05 09:23:19;;;;;;;28.10;9.87;;;;;;;10.58;100.00;95959.31;5036318;28;20217;-71
2024/03/05 09:25:45;;;;;;;37.33;11.40;;;;;;;10.71;100.00;95960.28;5035910;28;20751;-71
2024/03/05 09:28:13;;;;;;;30.37;10.20;;;;;;;10.84;100.00;95960.44;5036643;28;20223;-71
2024/03/05 09:30:40;;;;;;;32.00;11.70;;;;;;;10.73;100.00;95957.47;5036314;28;20217;-71
2024/03/05 09:33:09;;;;;;;37.60;12.23;;;;;;;10.65;100.00;95961.00;5036203;28;20955;-71
2024/03/05 09:35:35;;;;;;;32.30;9.93;;;;;;;10.79;100.00;95965.44;5035490;28;20259;-71
2024/03/05 09:38:02;;;;;;;33.87;11.33;;;;;;;10.51;100.00;95963.66;5037435;28;20556;-71
2024/03/05 09:40:29;;;;;;;39.30;13.13;;;;;;;10.45;100.00;95977.56;5036032;28;21237;-71
2024/03/05 09:42:59;;;;;;;37.57;12.03;;;;;;;10.38;100.00;95976.66;5036899;28;20232;-71
2024/03/05 09:45:30;;;;;;;32.27;11.33;;;;;;;10.37;100.00;95972.41;5035881;28;20209;-71
2024/03/05 09:47:58;;;;;;;33.77;11.70;;;;;;;10.26;100.00;95972.03;5037663;28;20235;-71
2024/03/05 09:50:25;;;;;;;33.57;10.23;;;;;;;10.44;100.00;95973.31;5036085;28;20742;-71
2024/03/05 09:52:52;;;;;;;33.13;11.93;;;;;;;10.12;100.00;95976.31;5036336;28;20225;-71
2024/03/05 09:55:19;;;;;;;35.93;11.80;;;;;;;10.11;100.00;95969.41;5036264;28;20228;-72
2024/03/05 09:57:48;;;;;;;36.33;10.70;;;;;;;10.43;100.00;95969.84;5036795;28;20359;-71
2024/03/05 10:00:17;;;;;;;31.67;11.17;;;;;;;10.53;100.00;95965.13;5036265;28;20204;-71
2024/03/05 10:02:47;;;;;;;33.63;11.33;;;;;;;10.69;100.00;95967.56;5036635;28;20216;-72
2024/03/05 10:05:15;;;;;;;29.33;11.10;;;;;;;10.84;100.00;95970.97;5035494;28;20201;-71
2024/03/05 10:07:42;;;;;;;34.63;10.73;;;;;;;11.08;100.00;95976.75;5035747;28;20289;-68
2024/03/05 10:10:12;;;;;;;35.67;11.23;;;;;;;10.90;100.00;95975.53;5036601;28;20202;-70
2024/03/05 10:12:39;;;;;;;35.83;11.63;;;;;;;11.09;100.00;95977.56;5035843;28;20228;-70
2024/03/05 10:15:13;;;;;;;35.13;11.67;;;;;;;11.43;100.00;95981.19;5034979;28;20287;-70
2024/03/05 10:17:45;;;;;;;28.63;9.97;;;;;;;11.25;100.00;95978.16;5035691;28;20200;-71
2024/03/05 10:20:29;;;;;;;32.60;12.57;;;;;;;11.11;100.00;95981.66;5036251;28;20212;-70
2024/03/05 10:22:58;;;;;;;33.30;9.87;;;;;;;11.09;100.00;95983.66;5035677;28;20217;-70
2024/03/05 10:25:26;;;;;;;28.43;8.93;;;;;;;11.03;100.00;95979.13;5033768;28;20251;-69
2024/03/05 10:27:53;;;;;;;26.50;10.17;;;;;;;11.24;100.00;95979.16;5035982;28;20254;-70
2024/03/05 10:30:25;;;;;;;23.27;8.53;;;;;;;11.40;100.00;95986.81;5035504;28;20205;-72
2024/03/05 10:32:57;;;;;;;21.60;8.07;;;;;;;11.48;100.00;95980.59;5035699;28;20248;-70
2024/03/05 10:35:23;;;;;;;26.70;9.20;;;;;;;11.19;100.00;95981.53;5033886;28;20699;-70
2024/03/05 10:37:57;;;;;;;24.73;8.33;;;;;;;11.87;100.00;95976.53;5034895;28;20675;-71
2024/03/05 10:40:24;;;;;;;26.70;9.10;;;;;;;11.62;100.00;95978.75;5035012;28;20589;-71
2024/03/05 10:42:52;;;;;;;21.20;7.70;;;;;;;11.79;100.00;95974.03;5035450;28;20279;-71
2024/03/05 10:45:23;;;;;;;22.17;7.97;;;;;;;11.30;100.00;95983.69;5035238;28;20205;-70
2024/03/05 10:47:51;;;;;;;24.43;8.30;;;;;;;11.63;100.00;95969.84;5035186;28;20201;-71
2024/03/05 10:50:21;;;;;;;23.53;8.13;;;;;;;11.52;100.00;95981.88;5036071;28;20197;-70
2024/03/05 10:52:48;;;;;;;26.27;8.20;;;;;;;11.50;100.00;95974.16;5035242;28;20221;-68
2024/03/05 10:55:21;;;;;;;23.03;8.53;;;;;;;11.55;100.00;95979.69;5035079;28;20201;-69
2024/03/05 11:00:35;;;;;;;23.90;8.03;;;;;;;11.82;100.00;95976.28;5035695;28;20201;-70
2024/03/05 11:03:05;;;;;;;26.70;9.17;;;;;;;12.38;100.00;95966.31;5035533;28;20232;-68
2024/03/05 11:05:40;;;;;;;23.77;7.73;;;;;;;12.42;100.00;95967.59;5035311;28;20204;-70
2024/03/05 11:08:12;;;;;;;21.10;7.80;;;;;;;12.13;100.00;95956.44;5036020;28;20266;-70
2024/03/05 11:10:41;;;;;;;21.90;8.07;;;;;;;11.84;100.00;95966.38;5036089;28;20270;-72
2024/03/05 11:13:08;;;;;;;23.13;7.87;;;;;;;11.79;100.00;95966.91;5036396;28;20237;-71
2024/03/05 11:15:36;;;;;;;19.60;7.63;;;;;;;11.57;100.00;95969.78;5034964;28;20208;-71
2024/03/05 11:18:02;;;;;;;19.23;7.30;;;;;;;11.81;100.00;95966.72;5035240;28;20197;-69
2024/03/05 11:20:42;;;;;;;20.07;8.00;;;;;;;12.23;100.00;95951.59;5038208;28;20208;-70
2024/03/05 11:23:11;;;;;;;24.37;8.17;;;;;;;11.93;100.00;95946.72;5039355;28;20259;-69
2024/03/05 11:25:42;;;;;;;18.93;6.77;;;;;;;12.19;100.00;95943.25;5039612;28;20208;-71
2024/03/05 11:28:11;;;;;;;28.37;9.93;;;;;;;11.66;100.00;95952.81;5039656;28;20283;-71
2024/03/05 11:30:41;;;;;;;20.77;7.93;;;;;;;11.62;100.00;95952.38;5039498;28;20685;-71